sensor_id;sensor_type;location;lat;lon;timestamp;temperature;humidity
7388;DHT22;3735;50.136;11.062;2023-04-25T00:01:32;8.40;99.90
7388;DHT22;3735;50.136;11.062;2023-04-25T00:04:02;8.50;99.90
7388;DHT22;3735;50.136;11.062;2023-04-25T00:06:28;8.50;99.90
7388;DHT22;3735;50.136;11.062;2023-04-25T00:08:55;8.50;99.90
7388;DHT22;3735;50.136;11.062;2023-04-25T00:11:22;8.50;99.90
7388;DHT22;3735;50.136;11.062;2023-04-25T00:13:48;8.40;99.90
7388;DHT22;3735;50.136;11.062;2023-04-25T00:16:16;8.40;99.90
7388;DHT22;3735;50.136;11.062;2023-04-25T00:18:42;8.50;99.90
7388;DHT22;3735;50.136;11.062;2023-04-25T00:21:08;8.50;99.90
7388;DHT22;3735;50.136;11.062;2023-04-25T00:23:34;8.40;99.90
7388;DHT22;3735;50.136;11.062;2023-04-25T00:26:01;8.40;99.90
7388;DHT22;3735;50.136;11.062;2023-04-25T00:28:28;8.30;99.90
7388;DHT22;3735;50.136;11.062;2023-04-25T00:30:53;8.20;99.90
7388;DHT22;3735;50.136;11.062;2023-04-25T00:33:19;8.10;99.90
7388;DHT22;3735;50.136;11.062;2023-04-25T00:35:45;8.00;99.90
7388;DHT22;3735;50.136;11.062;2023-04-25T00:38:11;7.90;99.90
7388;DHT22;3735;50.136;11.062;2023-04-25T00:40:37;7.80;99.90
7388;DHT22;3735;50.136;11.062;2023-04-25T00:43:02;7.80;99.90
7388;DHT22;3735;50.136;11.062;2023-04-25T00:45:30;7.80;99.90
7388;DHT22;3735;50.136;11.062;2023-04-25T00:47:56;7.90;99.90
7388;DHT22;3735;50.136;11.062;2023-04-25T00:50:23;7.90;99.90
7388;DHT22;3735;50.136;11.062;2023-04-25T00:52:50;7.90;99.90
7388;DHT22;3735;50.136;11.062;2023-04-25T00:55:16;7.80;99.90
7388;DHT22;3735;50.136;11.062;2023-04-25T00:57:42;7.80;99.90
7388;DHT22;3735;50.136;11.062;2023-04-25T01:00:09;7.70;99.90
7388;DHT22;3735;50.136;11.062;2023-04-25T01:02:36;7.70;99.90
7388;DHT22;3735;50.136;11.062;2023-04-25T01:05:03;7.70;99.90
7388;DHT22;3735;50.136;11.062;2023-04-25T01:07:32;7.70;99.90
7388;DHT22;3735;50.136;11.062;2023-04-25T01:09:59;7.60;99.90
7388;DHT22;3735;50.136;11.062;2023-04-25T01:12:24;7.50;99.90
7388;DHT22;3735;50.136;11.062;2023-04-25T01:14:50;7.50;99.90
7388;DHT22;3735;50.136;11.062;2023-04-25T01:17:17;7.30;99.90
7388;DHT22;3735;50.136;11.062;2023-04-25T01:19:45;7.30;99.90
7388;DHT22;3735;50.136;11.062;2023-04-25T01:22:14;7.20;99.90
7388;DHT22;3735;50.136;11.062;2023-04-25T01:24:40;7.30;99.90
7388;DHT22;3735;50.136;11.062;2023-04-25T01:27:07;7.40;99.90
7388;DHT22;3735;50.136;11.062;2023-04-25T01:29:35;7.40;99.90
7388;DHT22;3735;50.136;11.062;2023-04-25T01:32:01;7.50;99.90
7388;DHT22;3735;50.136;11.062;2023-04-25T01:34:28;7.60;99.90
7388;DHT22;3735;50.136;11.062;2023-04-25T01:36:54;7.70;99.90
7388;DHT22;3735;50.136;11.062;2023-04-25T01:39:20;7.80;99.90
7388;DHT22;3735;50.136;11.062;2023-04-25T01:41:47;7.80;99.90
7388;DHT22;3735;50.136;11.062;2023-04-25T01:44:13;7.90;99.90
7388;DHT22;3735;50.136;11.062;2023-04-25T01:46:40;8.00;99.90
7388;DHT22;3735;50.136;11.062;2023-04-25T01:49:06;8.00;99.90
7388;DHT22;3735;50.136;11.062;2023-04-25T01:51:33;8.10;99.90
7388;DHT22;3735;50.136;11.062;2023-04-25T01:53:59;8.10;99.90
7388;DHT22;3735;50.136;11.062;2023-04-25T01:56:30;8.10;99.90
7388;DHT22;3735;50.136;11.062;2023-04-25T01:58:57;8.10;99.90
7388;DHT22;3735;50.136;11.062;2023-04-25T02:01:23;8.10;99.90
7388;DHT22;3735;50.136;11.062;2023-04-25T02:03:49;8.10;99.90
7388;DHT22;3735;50.136;11.062;2023-04-25T02:06:14;8.10;99.90
7388;DHT22;3735;50.136;11.062;2023-04-25T02:08:40;8.10;99.90
7388;DHT22;3735;50.136;11.062;2023-04-25T02:11:06;8.10;99.90
7388;DHT22;3735;50.136;11.062;2023-04-25T02:13:31;8.10;99.90
7388;DHT22;3735;50.136;11.062;2023-04-25T02:15:57;8.10;99.90
7388;DHT22;3735;50.136;11.062;2023-04-25T02:18:23;8.10;99.90
7388;DHT22;3735;50.136;11.062;2023-04-25T02:20:49;8.10;99.90
7388;DHT22;3735;50.136;11.062;2023-04-25T02:23:15;8.20;99.90
7388;DHT22;3735;50.136;11.062;2023-04-25T02:25:41;8.10;99.90
7388;DHT22;3735;50.136;11.062;2023-04-25T02:28:07;8.10;99.90
7388;DHT22;3735;50.136;11.062;2023-04-25T02:30:33;8.20;99.90
7388;DHT22;3735;50.136;11.062;2023-04-25T02:32:59;8.10;99.90
7388;DHT22;3735;50.136;11.062;2023-04-25T02:35:25;8.10;99.90
7388;DHT22;3735;50.136;11.062;2023-04-25T02:37:51;8.10;99.90
7388;DHT22;3735;50.136;11.062;2023-04-25T02:40:16;8.10;99.90
7388;DHT22;3735;50.136;11.062;2023-04-25T02:42:42;8.10;99.90
7388;DHT22;3735;50.136;11.062;2023-04-25T02:45:08;8.10;99.90
7388;DHT22;3735;50.136;11.062;2023-04-25T02:47:34;8.10;99.90
7388;DHT22;3735;50.136;11.062;2023-04-25T02:50:00;8.10;99.90
7388;DHT22;3735;50.136;11.062;2023-04-25T02:52:26;8.10;99.90
7388;DHT22;3735;50.136;11.062;2023-04-25T02:54:52;8.10;99.90
7388;DHT22;3735;50.136;11.062;2023-04-25T02:57:17;8.10;99.90
7388;DHT22;3735;50.136;11.062;2023-04-25T02:59:43;8.10;99.90
7388;DHT22;3735;50.136;11.062;2023-04-25T03:02:09;8.10;99.90
7388;DHT22;3735;50.136;11.062;2023-04-25T03:04:35;8.10;99.90
7388;DHT22;3735;50.136;11.062;2023-04-25T03:07:01;8.20;99.90
7388;DHT22;3735;50.136;11.062;2023-04-25T03:09:27;8.10;99.90
7388;DHT22;3735;50.136;11.062;2023-04-25T03:11:52;8.20;99.90
7388;DHT22;3735;50.136;11.062;2023-04-25T03:14:18;8.10;99.90
7388;DHT22;3735;50.136;11.062;2023-04-25T03:16:44;8.00;99.90
7388;DHT22;3735;50.136;11.062;2023-04-25T03:19:10;7.90;99.90
7388;DHT22;3735;50.136;11.062;2023-04-25T03:21:36;7.80;99.90
7388;DHT22;3735;50.136;11.062;2023-04-25T03:24:03;7.70;99.90
7388;DHT22;3735;50.136;11.062;2023-04-25T03:26:30;7.60;99.90
7388;DHT22;3735;50.136;11.062;2023-04-25T03:28:56;7.60;99.90
7388;DHT22;3735;50.136;11.062;2023-04-25T03:31:21;7.50;99.90
7388;DHT22;3735;50.136;11.062;2023-04-25T03:33:47;7.40;99.90
7388;DHT22;3735;50.136;11.062;2023-04-25T03:36:13;7.40;99.90
7388;DHT22;3735;50.136;11.062;2023-04-25T03:38:39;7.40;99.90
7388;DHT22;3735;50.136;11.062;2023-04-25T03:41:07;7.30;99.90
7388;DHT22;3735;50.136;11.062;2023-04-25T03:43:33;7.30;99.90
7388;DHT22;3735;50.136;11.062;2023-04-25T03:45:59;7.30;99.90
7388;DHT22;3735;50.136;11.062;2023-04-25T03:48:26;7.30;99.90
7388;DHT22;3735;50.136;11.062;2023-04-25T03:50:52;7.30;99.90
7388;DHT22;3735;50.136;11.062;2023-04-25T03:53:19;7.30;99.90
7388;DHT22;3735;50.136;11.062;2023-04-25T03:55:45;7.30;99.90
7388;DHT22;3735;50.136;11.062;2023-04-25T03:58:10;7.30;99.90
7388;DHT22;3735;50.136;11.062;2023-04-25T04:00:36;7.30;99.90
7388;DHT22;3735;50.136;11.062;2023-04-25T04:03:02;7.20;99.90
7388;DHT22;3735;50.136;11.062;2023-04-25T04:05:28;7.00;99.90
7388;DHT22;3735;50.136;11.062;2023-04-25T04:07:54;6.80;99.90
7388;DHT22;3735;50.136;11.062;2023-04-25T04:10:21;6.80;99.90
7388;DHT22;3735;50.136;11.062;2023-04-25T04:12:47;6.70;99.90
7388;DHT22;3735;50.136;11.062;2023-04-25T04:15:13;6.80;99.90
7388;DHT22;3735;50.136;11.062;2023-04-25T04:17:39;6.80;99.90
7388;DHT22;3735;50.136;11.062;2023-04-25T04:20:06;6.80;99.90
7388;DHT22;3735;50.136;11.062;2023-04-25T04:22:33;6.80;99.90
7388;DHT22;3735;50.136;11.062;2023-04-25T04:24:59;6.80;99.90
7388;DHT22;3735;50.136;11.062;2023-04-25T04:27:24;6.90;99.90
7388;DHT22;3735;50.136;11.062;2023-04-25T04:29:50;6.80;99.90
7388;DHT22;3735;50.136;11.062;2023-04-25T04:32:18;6.80;99.90
7388;DHT22;3735;50.136;11.062;2023-04-25T04:34:44;6.70;99.90
7388;DHT22;3735;50.136;11.062;2023-04-25T04:37:10;6.70;99.90
7388;DHT22;3735;50.136;11.062;2023-04-25T04:39:38;6.60;99.90
7388;DHT22;3735;50.136;11.062;2023-04-25T04:42:04;6.60;99.90
7388;DHT22;3735;50.136;11.062;2023-04-25T04:44:30;6.50;99.90
7388;DHT22;3735;50.136;11.062;2023-04-25T04:46:59;6.50;99.90
7388;DHT22;3735;50.136;11.062;2023-04-25T04:49:25;6.50;99.90
7388;DHT22;3735;50.136;11.062;2023-04-25T04:51:51;6.50;99.90
7388;DHT22;3735;50.136;11.062;2023-04-25T04:54:17;6.50;99.90
7388;DHT22;3735;50.136;11.062;2023-04-25T04:56:43;6.40;99.90
7388;DHT22;3735;50.136;11.062;2023-04-25T04:59:09;6.40;99.90
7388;DHT22;3735;50.136;11.062;2023-04-25T05:01:35;6.40;99.90
7388;DHT22;3735;50.136;11.062;2023-04-25T05:04:01;6.40;99.90
7388;DHT22;3735;50.136;11.062;2023-04-25T05:06:28;6.30;99.90
7388;DHT22;3735;50.136;11.062;2023-04-25T05:08:55;6.30;99.90
7388;DHT22;3735;50.136;11.062;2023-04-25T05:11:22;6.30;99.90
7388;DHT22;3735;50.136;11.062;2023-04-25T05:13:53;6.30;99.90
7388;DHT22;3735;50.136;11.062;2023-04-25T05:16:19;6.30;99.90
7388;DHT22;3735;50.136;11.062;2023-04-25T05:18:46;6.30;99.90
7388;DHT22;3735;50.136;11.062;2023-04-25T05:21:13;6.40;99.90
7388;DHT22;3735;50.136;11.062;2023-04-25T05:23:39;6.50;99.90
7388;DHT22;3735;50.136;11.062;2023-04-25T05:26:05;6.60;99.90
7388;DHT22;3735;50.136;11.062;2023-04-25T05:28:31;6.60;99.90
7388;DHT22;3735;50.136;11.062;2023-04-25T05:30:56;6.80;99.90
7388;DHT22;3735;50.136;11.062;2023-04-25T05:33:22;7.00;99.90
7388;DHT22;3735;50.136;11.062;2023-04-25T05:35:48;7.20;99.90
7388;DHT22;3735;50.136;11.062;2023-04-25T05:38:14;7.30;99.90
7388;DHT22;3735;50.136;11.062;2023-04-25T05:40:40;7.30;99.90
7388;DHT22;3735;50.136;11.062;2023-04-25T05:43:06;7.30;99.90
7388;DHT22;3735;50.136;11.062;2023-04-25T05:45:32;7.30;99.90
7388;DHT22;3735;50.136;11.062;2023-04-25T05:47:58;7.30;99.90
7388;DHT22;3735;50.136;11.062;2023-04-25T05:50:24;7.20;99.90
7388;DHT22;3735;50.136;11.062;2023-04-25T05:52:50;7.20;99.90
7388;DHT22;3735;50.136;11.062;2023-04-25T05:55:16;7.30;99.90
7388;DHT22;3735;50.136;11.062;2023-04-25T05:57:41;7.30;99.90
7388;DHT22;3735;50.136;11.062;2023-04-25T06:00:11;7.30;99.90
7388;DHT22;3735;50.136;11.062;2023-04-25T06:02:38;7.30;99.90
7388;DHT22;3735;50.136;11.062;2023-04-25T06:05:04;7.40;99.90
7388;DHT22;3735;50.136;11.062;2023-04-25T06:07:30;7.40;99.90
7388;DHT22;3735;50.136;11.062;2023-04-25T06:09:56;7.40;99.90
7388;DHT22;3735;50.136;11.062;2023-04-25T06:12:22;7.40;99.90
7388;DHT22;3735;50.136;11.062;2023-04-25T06:14:48;7.50;99.90
7388;DHT22;3735;50.136;11.062;2023-04-25T06:17:13;7.70;99.90
7388;DHT22;3735;50.136;11.062;2023-04-25T06:19:39;7.90;99.90
7388;DHT22;3735;50.136;11.062;2023-04-25T06:22:07;8.20;99.90
7388;DHT22;3735;50.136;11.062;2023-04-25T06:24:33;8.70;99.90
7388;DHT22;3735;50.136;11.062;2023-04-25T06:27:00;9.00;99.90
7388;DHT22;3735;50.136;11.062;2023-04-25T06:29:25;9.20;99.90
7388;DHT22;3735;50.136;11.062;2023-04-25T06:31:51;9.50;99.90
7388;DHT22;3735;50.136;11.062;2023-04-25T06:34:17;9.70;99.90
7388;DHT22;3735;50.136;11.062;2023-04-25T06:36:43;10.00;99.90
7388;DHT22;3735;50.136;11.062;2023-04-25T06:39:09;9.90;99.90
7388;DHT22;3735;50.136;11.062;2023-04-25T06:41:36;9.50;99.90
7388;DHT22;3735;50.136;11.062;2023-04-25T06:44:01;9.40;99.90
7388;DHT22;3735;50.136;11.062;2023-04-25T06:46:27;9.30;99.90
7388;DHT22;3735;50.136;11.062;2023-04-25T06:48:53;9.20;99.90
7388;DHT22;3735;50.136;11.062;2023-04-25T06:51:19;9.30;99.90
7388;DHT22;3735;50.136;11.062;2023-04-25T06:53:44;9.80;99.90
7388;DHT22;3735;50.136;11.062;2023-04-25T06:56:10;10.90;99.90
7388;DHT22;3735;50.136;11.062;2023-04-25T06:58:36;11.40;99.90
7388;DHT22;3735;50.136;11.062;2023-04-25T07:01:02;11.40;99.90
7388;DHT22;3735;50.136;11.062;2023-04-25T07:03:28;11.40;99.90
7388;DHT22;3735;50.136;11.062;2023-04-25T07:05:54;11.60;99.90
7388;DHT22;3735;50.136;11.062;2023-04-25T07:08:20;12.10;99.90
7388;DHT22;3735;50.136;11.062;2023-04-25T07:10:46;12.80;99.90
7388;DHT22;3735;50.136;11.062;2023-04-25T07:13:12;13.60;99.90
7388;DHT22;3735;50.136;11.062;2023-04-25T07:15:38;14.20;99.90
7388;DHT22;3735;50.136;11.062;2023-04-25T07:18:04;15.70;99.90
7388;DHT22;3735;50.136;11.062;2023-04-25T07:20:29;16.40;99.90
7388;DHT22;3735;50.136;11.062;2023-04-25T07:22:56;16.10;99.90
7388;DHT22;3735;50.136;11.062;2023-04-25T07:25:22;15.70;99.90
7388;DHT22;3735;50.136;11.062;2023-04-25T07:27:48;15.20;99.90
7388;DHT22;3735;50.136;11.062;2023-04-25T07:30:14;14.60;99.90
7388;DHT22;3735;50.136;11.062;2023-04-25T07:32:40;14.00;99.90
7388;DHT22;3735;50.136;11.062;2023-04-25T07:35:06;13.80;99.90
7388;DHT22;3735;50.136;11.062;2023-04-25T07:37:35;13.80;99.90
7388;DHT22;3735;50.136;11.062;2023-04-25T07:40:03;13.30;99.90
7388;DHT22;3735;50.136;11.062;2023-04-25T07:42:30;13.30;99.90
7388;DHT22;3735;50.136;11.062;2023-04-25T07:44:56;13.40;99.90
7388;DHT22;3735;50.136;11.062;2023-04-25T07:47:21;13.60;99.90
7388;DHT22;3735;50.136;11.062;2023-04-25T07:49:47;14.70;99.90
7388;DHT22;3735;50.136;11.062;2023-04-25T07:52:13;15.50;99.90
7388;DHT22;3735;50.136;11.062;2023-04-25T07:54:39;17.00;99.90
7388;DHT22;3735;50.136;11.062;2023-04-25T07:57:05;17.60;99.90
7388;DHT22;3735;50.136;11.062;2023-04-25T07:59:34;17.30;99.90
7388;DHT22;3735;50.136;11.062;2023-04-25T08:02:00;17.40;99.90
7388;DHT22;3735;50.136;11.062;2023-04-25T08:04:26;18.20;99.90
7388;DHT22;3735;50.136;11.062;2023-04-25T08:06:52;19.40;99.90
7388;DHT22;3735;50.136;11.062;2023-04-25T08:09:21;20.60;99.90
7388;DHT22;3735;50.136;11.062;2023-04-25T08:11:47;21.20;99.90
7388;DHT22;3735;50.136;11.062;2023-04-25T08:14:13;20.70;99.90
7388;DHT22;3735;50.136;11.062;2023-04-25T08:16:39;19.80;99.90
7388;DHT22;3735;50.136;11.062;2023-04-25T08:19:05;18.80;99.90
7388;DHT22;3735;50.136;11.062;2023-04-25T08:21:31;17.40;99.90
7388;DHT22;3735;50.136;11.062;2023-04-25T08:23:58;17.00;99.90
7388;DHT22;3735;50.136;11.062;2023-04-25T08:26:24;17.40;99.90
7388;DHT22;3735;50.136;11.062;2023-04-25T08:28:51;16.90;99.90
7388;DHT22;3735;50.136;11.062;2023-04-25T08:31:16;16.00;99.90
7388;DHT22;3735;50.136;11.062;2023-04-25T08:33:42;15.60;99.90
7388;DHT22;3735;50.136;11.062;2023-04-25T08:36:09;15.20;99.90
7388;DHT22;3735;50.136;11.062;2023-04-25T08:38:35;15.10;99.90
7388;DHT22;3735;50.136;11.062;2023-04-25T08:41:02;16.80;99.90
7388;DHT22;3735;50.136;11.062;2023-04-25T08:43:29;19.10;99.90
7388;DHT22;3735;50.136;11.062;2023-04-25T08:45:59;20.30;99.90
7388;DHT22;3735;50.136;11.062;2023-04-25T08:48:32;19.30;99.90
7388;DHT22;3735;50.136;11.062;2023-04-25T08:51:01;19.90;99.90
7388;DHT22;3735;50.136;11.062;2023-04-25T08:53:31;21.50;99.90
7388;DHT22;3735;50.136;11.062;2023-04-25T08:55:59;22.50;99.90
7388;DHT22;3735;50.136;11.062;2023-04-25T08:58:29;22.80;99.90
7388;DHT22;3735;50.136;11.062;2023-04-25T09:00:56;22.60;99.90
7388;DHT22;3735;50.136;11.062;2023-04-25T09:03:22;22.90;99.90
7388;DHT22;3735;50.136;11.062;2023-04-25T09:05:47;23.60;99.90
7388;DHT22;3735;50.136;11.062;2023-04-25T09:08:14;23.90;99.90
7388;DHT22;3735;50.136;11.062;2023-04-25T09:10:40;24.70;99.90
7388;DHT22;3735;50.136;11.062;2023-04-25T09:13:11;24.50;99.90
7388;DHT22;3735;50.136;11.062;2023-04-25T09:15:49;24.40;99.90
7388;DHT22;3735;50.136;11.062;2023-04-25T09:18:33;24.70;99.90
7388;DHT22;3735;50.136;11.062;2023-04-25T09:21:08;24.70;99.90
7388;DHT22;3735;50.136;11.062;2023-04-25T09:23:40;24.50;99.90
7388;DHT22;3735;50.136;11.062;2023-04-25T09:26:15;21.80;99.90
7388;DHT22;3735;50.136;11.062;2023-04-25T09:28:42;20.60;99.90
7388;DHT22;3735;50.136;11.062;2023-04-25T09:31:10;21.00;99.90
7388;DHT22;3735;50.136;11.062;2023-04-25T09:33:40;22.00;99.90
7388;DHT22;3735;50.136;11.062;2023-04-25T09:36:08;22.70;99.90
7388;DHT22;3735;50.136;11.062;2023-04-25T09:38:44;22.50;99.90
7388;DHT22;3735;50.136;11.062;2023-04-25T09:41:11;21.50;99.90
7388;DHT22;3735;50.136;11.062;2023-04-25T09:43:38;21.10;99.90
7388;DHT22;3735;50.136;11.062;2023-04-25T09:46:09;19.80;99.90
7388;DHT22;3735;50.136;11.062;2023-04-25T09:48:36;18.30;99.90
7388;DHT22;3735;50.136;11.062;2023-04-25T09:51:13;17.50;99.90
7388;DHT22;3735;50.136;11.062;2023-04-25T09:53:44;18.50;99.90
7388;DHT22;3735;50.136;11.062;2023-04-25T09:56:16;18.40;99.90
7388;DHT22;3735;50.136;11.062;2023-04-25T09:58:47;17.70;99.90
7388;DHT22;3735;50.136;11.062;2023-04-25T10:01:14;16.50;99.90
7388;DHT22;3735;50.136;11.062;2023-04-25T10:03:42;15.60;99.90
7388;DHT22;3735;50.136;11.062;2023-04-25T10:06:12;15.10;99.90
7388;DHT22;3735;50.136;11.062;2023-04-25T10:08:43;14.60;99.90
7388;DHT22;3735;50.136;11.062;2023-04-25T10:11:10;14.60;99.90
7388;DHT22;3735;50.136;11.062;2023-04-25T10:13:39;14.60;99.90
7388;DHT22;3735;50.136;11.062;2023-04-25T10:16:05;15.50;99.90
7388;DHT22;3735;50.136;11.062;2023-04-25T10:18:32;17.50;99.90
7388;DHT22;3735;50.136;11.062;2023-04-25T10:21:00;19.00;99.90
7388;DHT22;3735;50.136;11.062;2023-04-25T10:23:29;18.90;99.90
7388;DHT22;3735;50.136;11.062;2023-04-25T10:25:57;18.20;99.90
7388;DHT22;3735;50.136;11.062;2023-04-25T10:28:24;17.40;99.90
7388;DHT22;3735;50.136;11.062;2023-04-25T10:30:57;16.60;99.90
7388;DHT22;3735;50.136;11.062;2023-04-25T10:33:37;16.00;99.90
7388;DHT22;3735;50.136;11.062;2023-04-25T10:36:14;16.60;99.90
7388;DHT22;3735;50.136;11.062;2023-04-25T10:38:44;17.20;99.90
7388;DHT22;3735;50.136;11.062;2023-04-25T10:41:12;17.10;99.90
7388;DHT22;3735;50.136;11.062;2023-04-25T10:43:40;16.80;99.90
7388;DHT22;3735;50.136;11.062;2023-04-25T10:46:29;16.60;99.90
7388;DHT22;3735;50.136;11.062;2023-04-25T10:49:01;16.30;99.90
7388;DHT22;3735;50.136;11.062;2023-04-25T10:51:34;15.80;99.90
7388;DHT22;3735;50.136;11.062;2023-04-25T10:54:06;15.10;99.90
7388;DHT22;3735;50.136;11.062;2023-04-25T10:56:37;14.40;99.90
7388;DHT22;3735;50.136;11.062;2023-04-25T10:59:16;13.60;99.90
7388;DHT22;3735;50.136;11.062;2023-04-25T11:01:47;13.30;99.90
7388;DHT22;3735;50.136;11.062;2023-04-25T11:04:32;13.60;99.90
7388;DHT22;3735;50.136;11.062;2023-04-25T11:10:03;16.20;99.90
7388;DHT22;3735;50.136;11.062;2023-04-25T11:12:31;17.00;99.90
7388;DHT22;3735;50.136;11.062;2023-04-25T11:15:07;16.60;99.90
7388;DHT22;3735;50.136;11.062;2023-04-25T11:17:34;15.60;99.90
7388;DHT22;3735;50.136;11.062;2023-04-25T11:20:00;14.50;99.90
7388;DHT22;3735;50.136;11.062;2023-04-25T11:22:27;13.80;99.90
7388;DHT22;3735;50.136;11.062;2023-04-25T11:24:53;13.50;99.90
7388;DHT22;3735;50.136;11.062;2023-04-25T11:27:19;13.30;99.90
7388;DHT22;3735;50.136;11.062;2023-04-25T11:29:46;13.20;99.90
7388;DHT22;3735;50.136;11.062;2023-04-25T11:32:15;13.10;99.90
7388;DHT22;3735;50.136;11.062;2023-04-25T11:34:44;13.20;99.90
7388;DHT22;3735;50.136;11.062;2023-04-25T11:37:10;14.00;99.90
7388;DHT22;3735;50.136;11.062;2023-04-25T11:39:43;17.40;99.90
7388;DHT22;3735;50.136;11.062;2023-04-25T11:42:11;19.50;99.90
7388;DHT22;3735;50.136;11.062;2023-04-25T11:44:38;19.20;99.90
7388;DHT22;3735;50.136;11.062;2023-04-25T11:47:05;18.40;99.90
7388;DHT22;3735;50.136;11.062;2023-04-25T11:49:31;17.20;99.90
7388;DHT22;3735;50.136;11.062;2023-04-25T11:51:57;16.10;99.90
7388;DHT22;3735;50.136;11.062;2023-04-25T11:54:23;15.10;99.90
7388;DHT22;3735;50.136;11.062;2023-04-25T11:56:49;14.30;99.90
7388;DHT22;3735;50.136;11.062;2023-04-25T11:59:15;13.50;99.90
7388;DHT22;3735;50.136;11.062;2023-04-25T12:01:49;13.10;99.90
7388;DHT22;3735;50.136;11.062;2023-04-25T12:04:20;13.10;99.90
7388;DHT22;3735;50.136;11.062;2023-04-25T12:06:49;13.40;99.90
7388;DHT22;3735;50.136;11.062;2023-04-25T12:09:19;13.70;99.90
7388;DHT22;3735;50.136;11.062;2023-04-25T12:11:56;14.10;99.90
7388;DHT22;3735;50.136;11.062;2023-04-25T12:14:27;14.30;99.90
7388;DHT22;3735;50.136;11.062;2023-04-25T12:16:59;14.70;99.90
7388;DHT22;3735;50.136;11.062;2023-04-25T12:19:29;15.20;99.90
7388;DHT22;3735;50.136;11.062;2023-04-25T12:22:00;15.40;99.90
7388;DHT22;3735;50.136;11.062;2023-04-25T12:24:45;15.40;99.90
7388;DHT22;3735;50.136;11.062;2023-04-25T12:27:10;15.60;99.90
7388;DHT22;3735;50.136;11.062;2023-04-25T12:29:54;16.00;99.90
7388;DHT22;3735;50.136;11.062;2023-04-25T12:32:22;16.60;99.90
7388;DHT22;3735;50.136;11.062;2023-04-25T12:34:48;17.80;99.90
7388;DHT22;3735;50.136;11.062;2023-04-25T12:37:14;18.10;99.90
7388;DHT22;3735;50.136;11.062;2023-04-25T12:39:40;17.90;99.90
7388;DHT22;3735;50.136;11.062;2023-04-25T12:42:06;17.50;99.90
7388;DHT22;3735;50.136;11.062;2023-04-25T12:44:38;16.80;99.90
7388;DHT22;3735;50.136;11.062;2023-04-25T12:47:05;16.30;99.90
7388;DHT22;3735;50.136;11.062;2023-04-25T12:49:31;15.90;99.90
7388;DHT22;3735;50.136;11.062;2023-04-25T12:51:57;15.60;99.90
7388;DHT22;3735;50.136;11.062;2023-04-25T12:54:23;15.10;99.90
7388;DHT22;3735;50.136;11.062;2023-04-25T12:56:49;14.70;99.90
7388;DHT22;3735;50.136;11.062;2023-04-25T12:59:16;14.40;99.90
7388;DHT22;3735;50.136;11.062;2023-04-25T13:01:42;14.00;99.90
7388;DHT22;3735;50.136;11.062;2023-04-25T13:04:08;13.90;99.90
7388;DHT22;3735;50.136;11.062;2023-04-25T13:06:33;13.60;99.90
7388;DHT22;3735;50.136;11.062;2023-04-25T13:08:59;13.30;99.90
7388;DHT22;3735;50.136;11.062;2023-04-25T13:11:25;13.30;99.90
7388;DHT22;3735;50.136;11.062;2023-04-25T13:13:51;13.40;99.90
7388;DHT22;3735;50.136;11.062;2023-04-25T13:16:17;13.30;99.90
7388;DHT22;3735;50.136;11.062;2023-04-25T13:18:45;13.20;99.90
7388;DHT22;3735;50.136;11.062;2023-04-25T13:21:11;13.20;99.90
7388;DHT22;3735;50.136;11.062;2023-04-25T13:23:37;13.00;99.90
7388;DHT22;3735;50.136;11.062;2023-04-25T13:26:03;12.90;99.90
7388;DHT22;3735;50.136;11.062;2023-04-25T13:28:29;12.80;99.90
7388;DHT22;3735;50.136;11.062;2023-04-25T13:30:55;12.80;99.90
7388;DHT22;3735;50.136;11.062;2023-04-25T13:33:21;12.70;99.90
7388;DHT22;3735;50.136;11.062;2023-04-25T13:35:48;12.60;99.90
7388;DHT22;3735;50.136;11.062;2023-04-25T13:38:21;12.40;99.90
7388;DHT22;3735;50.136;11.062;2023-04-25T13:40:48;12.30;99.90
7388;DHT22;3735;50.136;11.062;2023-04-25T13:43:14;12.10;99.90
7388;DHT22;3735;50.136;11.062;2023-04-25T13:45:40;11.90;99.90
7388;DHT22;3735;50.136;11.062;2023-04-25T13:48:06;11.70;99.90
7388;DHT22;3735;50.136;11.062;2023-04-25T13:50:32;11.40;99.90
7388;DHT22;3735;50.136;11.062;2023-04-25T13:52:58;11.10;99.90
7388;DHT22;3735;50.136;11.062;2023-04-25T13:55:23;10.90;99.90
7388;DHT22;3735;50.136;11.062;2023-04-25T13:57:49;10.70;99.90
7388;DHT22;3735;50.136;11.062;2023-04-25T14:00:15;10.40;99.90
7388;DHT22;3735;50.136;11.062;2023-04-25T14:02:41;10.50;99.90
7388;DHT22;3735;50.136;11.062;2023-04-25T14:05:07;10.70;99.90
7388;DHT22;3735;50.136;11.062;2023-04-25T14:07:36;11.10;99.90
7388;DHT22;3735;50.136;11.062;2023-04-25T14:10:03;11.50;99.90
7388;DHT22;3735;50.136;11.062;2023-04-25T14:12:30;11.80;99.90
7388;DHT22;3735;50.136;11.062;2023-04-25T14:14:57;11.90;99.90
7388;DHT22;3735;50.136;11.062;2023-04-25T14:17:23;12.00;99.90
7388;DHT22;3735;50.136;11.062;2023-04-25T14:19:49;12.10;99.90
7388;DHT22;3735;50.136;11.062;2023-04-25T14:22:15;12.10;99.90
7388;DHT22;3735;50.136;11.062;2023-04-25T14:24:41;12.50;99.90
7388;DHT22;3735;50.136;11.062;2023-04-25T14:27:07;13.10;99.90
7388;DHT22;3735;50.136;11.062;2023-04-25T14:29:33;13.70;99.90
7388;DHT22;3735;50.136;11.062;2023-04-25T14:32:00;14.20;99.90
7388;DHT22;3735;50.136;11.062;2023-04-25T14:34:26;15.10;99.90
7388;DHT22;3735;50.136;11.062;2023-04-25T14:36:52;15.60;99.90
7388;DHT22;3735;50.136;11.062;2023-04-25T14:39:18;15.60;99.90
7388;DHT22;3735;50.136;11.062;2023-04-25T14:41:44;15.20;99.90
7388;DHT22;3735;50.136;11.062;2023-04-25T14:44:10;14.70;99.90
7388;DHT22;3735;50.136;11.062;2023-04-25T14:46:36;14.30;99.90
7388;DHT22;3735;50.136;11.062;2023-04-25T14:49:03;14.10;99.90
7388;DHT22;3735;50.136;11.062;2023-04-25T14:51:29;13.90;99.90
7388;DHT22;3735;50.136;11.062;2023-04-25T14:53:56;13.70;99.90
7388;DHT22;3735;50.136;11.062;2023-04-25T14:56:22;13.50;99.90
7388;DHT22;3735;50.136;11.062;2023-04-25T14:58:48;13.60;99.90
7388;DHT22;3735;50.136;11.062;2023-04-25T15:01:14;13.40;99.90
7388;DHT22;3735;50.136;11.062;2023-04-25T15:03:43;13.40;99.90
7388;DHT22;3735;50.136;11.062;2023-04-25T15:06:08;13.40;99.90
7388;DHT22;3735;50.136;11.062;2023-04-25T15:08:34;13.60;99.90
7388;DHT22;3735;50.136;11.062;2023-04-25T15:11:01;13.70;99.90
7388;DHT22;3735;50.136;11.062;2023-04-25T15:13:28;13.70;99.90
7388;DHT22;3735;50.136;11.062;2023-04-25T15:15:54;13.70;99.90
7388;DHT22;3735;50.136;11.062;2023-04-25T15:18:21;13.70;99.90
7388;DHT22;3735;50.136;11.062;2023-04-25T15:20:48;13.50;99.90
7388;DHT22;3735;50.136;11.062;2023-04-25T15:23:15;13.60;99.90
7388;DHT22;3735;50.136;11.062;2023-04-25T15:25:41;14.90;99.90
7388;DHT22;3735;50.136;11.062;2023-04-25T15:28:07;16.80;99.90
7388;DHT22;3735;50.136;11.062;2023-04-25T15:30:33;16.90;99.90
7388;DHT22;3735;50.136;11.062;2023-04-25T15:32:59;16.60;99.90
7388;DHT22;3735;50.136;11.062;2023-04-25T15:35:25;15.70;99.90
7388;DHT22;3735;50.136;11.062;2023-04-25T15:37:51;14.90;99.90
7388;DHT22;3735;50.136;11.062;2023-04-25T15:40:17;14.60;99.90
7388;DHT22;3735;50.136;11.062;2023-04-25T15:42:46;15.50;99.90
7388;DHT22;3735;50.136;11.062;2023-04-25T15:45:16;16.80;99.90
7388;DHT22;3735;50.136;11.062;2023-04-25T15:47:44;17.90;99.90
7388;DHT22;3735;50.136;11.062;2023-04-25T15:50:10;18.30;99.90
7388;DHT22;3735;50.136;11.062;2023-04-25T15:52:37;17.60;99.90
7388;DHT22;3735;50.136;11.062;2023-04-25T15:55:04;16.30;99.90